createdAt,value
2018-01-13T00:00:17.662Z,51.70
2018-01-13T00:01:17.690Z,49.70
2018-01-13T00:02:17.670Z,49.20
2018-01-13T00:03:19.755Z,48.70
2018-01-13T00:04:17.673Z,48.70
2018-01-13T00:05:17.674Z,50.30
2018-01-13T00:06:17.724Z,49.80
2018-01-13T00:07:17.682Z,50.30
2018-01-13T00:08:24.394Z,50.60
2018-01-13T00:09:17.690Z,49.90
2018-01-13T00:10:18.776Z,49.40
2018-01-13T00:11:17.707Z,50.70
2018-01-13T00:12:19.814Z,49.40
2018-01-13T00:13:17.706Z,49.70
2018-01-13T00:14:17.780Z,48.30
2018-01-13T00:15:17.719Z,50.30
2018-01-13T00:16:23.427Z,48.90
2018-01-13T00:17:17.718Z,48.90
2018-01-13T00:18:19.751Z,49.50
2018-01-13T00:19:17.727Z,50.10
2018-01-13T00:20:22.426Z,51.00
2018-01-13T00:21:17.737Z,49.90
2018-01-13T00:22:18.759Z,50.80
2018-01-13T00:23:17.740Z,50.30
2018-01-13T00:24:17.849Z,49.80
2018-01-13T00:25:17.748Z,50.50
2018-01-13T00:26:17.861Z,50.10
2018-01-13T00:27:17.755Z,50.80
2018-01-13T00:28:17.773Z,49.60
2018-01-13T00:29:17.762Z,51.50
2018-01-13T00:30:17.785Z,50.80
2018-01-13T00:31:17.802Z,49.60
2018-01-13T00:32:17.799Z,49.60
2018-01-13T00:33:17.772Z,49.10
2018-01-13T00:34:18.835Z,49.70
2018-01-13T00:35:18.213Z,48.70
2018-01-13T00:36:17.825Z,49.40
2018-01-13T00:37:17.790Z,48.70
2018-01-13T00:38:19.889Z,49.60
2018-01-13T00:39:17.797Z,49.10
2018-01-13T00:40:17.853Z,48.40
2018-01-13T00:41:17.798Z,48.20
2018-01-13T00:42:17.873Z,48.40
2018-01-13T00:43:17.805Z,48.50
2018-01-13T00:44:17.879Z,49.10
2018-01-13T00:45:17.813Z,47.40
2018-01-13T00:46:18.918Z,49.60
2018-01-13T00:47:17.828Z,49.30
2018-01-13T00:48:17.909Z,47.80
2018-01-13T00:49:17.828Z,47.10
2018-01-13T00:50:17.921Z,48.70
2018-01-13T00:51:17.832Z,48.10
2018-01-13T00:52:17.935Z,49.80
2018-01-13T00:53:17.844Z,49.10
2018-01-13T00:54:17.956Z,48.80
2018-01-13T00:55:17.853Z,48.50
2018-01-13T00:56:18.884Z,47.90
2018-01-13T00:57:17.858Z,49.30
2018-01-13T00:58:18.896Z,49.20
2018-01-13T00:59:17.862Z,48.00
2018-01-13T01:00:17.891Z,48.90
2018-01-13T01:01:17.872Z,48.10
2018-01-13T01:02:18.930Z,46.80
2018-01-13T01:03:17.881Z,48.50
2018-01-13T01:04:22.430Z,47.40
2018-01-13T01:05:17.876Z,46.10
2018-01-13T01:06:17.934Z,46.10
2018-01-13T01:07:17.897Z,46.70
2018-01-13T01:08:17.945Z,47.40
2018-01-13T01:09:17.898Z,47.60
2018-01-13T01:10:20.008Z,47.50
2018-01-13T01:11:17.902Z,46.70
2018-01-13T01:12:17.974Z,48.30
2018-01-13T01:13:17.904Z,48.70
2018-01-13T01:14:19.934Z,47.20
2018-01-13T01:15:17.916Z,47.50
2018-01-13T01:16:18.002Z,47.80
2018-01-13T01:17:17.931Z,48.70
2018-01-13T01:18:18.011Z,47.00
2018-01-13T01:19:17.933Z,46.80
2018-01-13T01:20:18.946Z,47.10
2018-01-13T01:21:17.946Z,46.10
2018-01-13T01:22:18.040Z,48.20
2018-01-13T01:23:17.941Z,48.80
2018-01-13T01:24:18.053Z,47.10
2018-01-13T01:25:17.955Z,47.10
2018-01-13T01:26:18.065Z,46.50
2018-01-13T01:27:17.960Z,47.50
2018-01-13T01:28:17.975Z,46.60
2018-01-13T01:29:17.965Z,45.60
2018-01-13T01:30:20.037Z,47.50
2018-01-13T01:31:17.980Z,47.20
2018-01-13T01:32:19.028Z,46.80
2018-01-13T01:33:17.974Z,45.80
2018-01-13T01:34:23.955Z,46.70
2018-01-13T01:35:17.983Z,45.30
2018-01-13T01:36:18.029Z,46.40
2018-01-13T01:37:18.000Z,47.30
2018-01-13T01:38:19.066Z,47.30
2018-01-13T01:39:17.995Z,45.80
2018-01-13T01:40:24.003Z,46.20
2018-01-13T01:41:18.006Z,46.60
2018-01-13T01:42:20.123Z,46.10
2018-01-13T01:43:18.007Z,46.40
2018-01-13T01:44:20.130Z,47.00
2018-01-13T01:45:18.014Z,47.00
2018-01-13T01:46:22.913Z,46.90
2018-01-13T01:47:18.026Z,47.70
2018-01-13T01:48:19.140Z,48.00
2018-01-13T01:49:18.030Z,47.10
2018-01-13T01:50:19.050Z,47.20
2018-01-13T01:51:18.047Z,47.70
2018-01-13T01:52:18.141Z,46.00
2018-01-13T01:53:18.044Z,47.30
2018-01-13T01:54:33.013Z,46.10
2018-01-13T01:55:18.057Z,46.60
2018-01-13T01:56:24.925Z,46.80
2018-01-13T01:57:18.057Z,47.10
2018-01-13T01:58:19.105Z,48.70
2018-01-13T01:59:18.062Z,47.60
2018-01-13T02:00:19.114Z,46.40
2018-01-13T02:01:18.069Z,45.40
2018-01-13T02:02:20.153Z,45.90
2018-01-13T02:03:18.079Z,46.20
2018-01-13T02:04:19.085Z,47.00
2018-01-13T02:05:18.082Z,46.00
2018-01-13T02:06:19.097Z,45.50
2018-01-13T02:07:18.090Z,49.00
2018-01-13T02:08:22.889Z,47.90
2018-01-13T02:09:18.102Z,48.10
2018-01-13T02:10:19.102Z,47.10
2018-01-13T02:11:18.105Z,47.30
2018-01-13T02:12:18.113Z,47.60
2018-01-13T02:13:18.112Z,47.20
2018-01-13T02:14:19.123Z,46.60
2018-01-13T02:15:18.123Z,47.00
2018-01-13T02:16:19.127Z,47.10
2018-01-13T02:17:18.120Z,47.40
2018-01-13T02:18:18.136Z,46.60
2018-01-13T02:19:18.132Z,46.40
2018-01-13T02:20:18.138Z,48.20
2018-01-13T02:21:18.136Z,47.40
2018-01-13T02:22:18.143Z,45.70
2018-01-13T02:23:18.150Z,46.30
2018-01-13T02:24:22.893Z,46.10
2018-01-13T02:25:18.154Z,46.40
2018-01-13T02:26:19.162Z,47.50
2018-01-13T02:27:18.159Z,46.50
2018-01-13T02:28:18.164Z,47.00
2018-01-13T02:29:18.164Z,47.70
2018-01-13T02:30:18.169Z,47.30
2018-01-13T02:31:18.172Z,46.10
2018-01-13T02:32:19.175Z,47.00
2018-01-13T02:33:18.178Z,47.20
2018-01-13T02:34:18.189Z,47.10
2018-01-13T02:35:18.184Z,48.30
2018-01-13T02:36:20.195Z,45.20
2018-01-13T02:37:18.194Z,46.70
2018-01-13T02:38:19.199Z,46.60
2018-01-13T02:39:18.197Z,45.70
2018-01-13T02:40:18.219Z,46.10
2018-01-13T02:41:18.209Z,47.70
2018-01-13T02:42:18.215Z,47.10
2018-01-13T02:43:18.210Z,46.30
2018-01-13T02:44:19.219Z,44.50
2018-01-13T02:45:18.219Z,45.00
2018-01-13T02:46:18.232Z,46.10
2018-01-13T02:47:18.232Z,45.30
2018-01-13T02:48:20.256Z,45.30
2018-01-13T02:49:18.232Z,45.70
2018-01-13T02:50:18.235Z,45.60
2018-01-13T02:51:18.236Z,45.60
2018-01-13T02:52:20.251Z,46.90
2018-01-13T02:53:18.241Z,47.70
2018-01-13T02:54:18.252Z,47.50
2018-01-13T02:55:18.253Z,46.40
2018-01-13T02:56:19.264Z,47.50
2018-01-13T02:57:18.264Z,46.40
2018-01-13T02:58:23.907Z,47.60
2018-01-13T02:59:18.261Z,45.40
2018-01-13T03:00:19.270Z,45.80
2018-01-13T03:01:18.271Z,46.10
2018-01-13T03:02:18.278Z,44.80
2018-01-13T03:03:18.278Z,45.20
2018-01-13T03:04:18.285Z,46.20
2018-01-13T03:05:18.280Z,46.60
2018-01-13T03:06:19.294Z,45.40
2018-01-13T03:07:18.294Z,45.10
2018-01-13T03:08:22.899Z,46.60
2018-01-13T03:09:18.295Z,44.70
2018-01-13T03:10:18.305Z,47.60
2018-01-13T03:11:18.305Z,45.80
2018-01-13T03:12:18.309Z,46.50
2018-01-13T03:13:18.324Z,46.80
2018-01-13T03:14:18.319Z,46.10
2018-01-13T03:15:18.323Z,46.30
2018-01-13T03:16:18.326Z,45.70
2018-01-13T03:17:18.318Z,47.10
2018-01-13T03:18:18.329Z,46.10
2018-01-13T03:19:18.332Z,45.90
2018-01-13T03:20:20.340Z,45.40
2018-01-13T03:21:18.339Z,45.40
2018-01-13T03:22:18.342Z,46.40
2018-01-13T03:23:18.345Z,46.50
2018-01-13T03:24:19.355Z,45.60
2018-01-13T03:25:18.350Z,46.10
2018-01-13T03:26:19.361Z,45.60
2018-01-13T03:27:18.358Z,47.60
2018-01-13T03:28:18.366Z,47.00
2018-01-13T03:29:18.362Z,44.80
2018-01-13T03:30:18.369Z,45.30
2018-01-13T03:31:18.370Z,45.70
2018-01-13T03:32:18.379Z,46.50
2018-01-13T03:33:18.376Z,46.40
2018-01-13T03:34:19.392Z,47.40
2018-01-13T03:35:18.387Z,46.10
2018-01-13T03:36:18.387Z,45.80
2018-01-13T03:37:18.389Z,45.20
2018-01-13T03:38:23.912Z,45.40
2018-01-13T03:39:18.399Z,44.90
2018-01-13T03:40:18.400Z,45.10
2018-01-13T03:41:18.401Z,47.40
2018-01-13T03:42:19.409Z,46.10
2018-01-13T03:43:18.414Z,45.80
2018-01-13T03:44:19.424Z,45.10
2018-01-13T03:45:18.416Z,45.20
2018-01-13T03:46:23.402Z,44.00
2018-01-13T03:47:18.423Z,45.40
2018-01-13T03:48:18.435Z,45.40
2018-01-13T03:49:18.428Z,44.10
2018-01-13T03:50:20.445Z,44.00
2018-01-13T03:51:18.434Z,45.20
2018-01-13T03:52:18.447Z,46.30
2018-01-13T03:53:18.442Z,46.00
2018-01-13T03:54:18.452Z,44.70
2018-01-13T03:55:18.446Z,46.40
2018-01-13T03:56:24.412Z,46.80
2018-01-13T03:57:18.454Z,46.10
2018-01-13T03:58:18.461Z,46.20
2018-01-13T03:59:18.460Z,43.30
2018-01-13T04:00:18.468Z,44.50
2018-01-13T04:01:18.467Z,45.30
2018-01-13T04:02:19.481Z,45.10
2018-01-13T04:03:18.474Z,42.90
2018-01-13T04:04:18.490Z,44.10
2018-01-13T04:05:18.477Z,43.70
2018-01-13T04:06:18.505Z,45.10
2018-01-13T04:07:18.488Z,44.60
2018-01-13T04:08:18.495Z,45.70
2018-01-13T04:09:18.493Z,44.70
2018-01-13T04:10:18.545Z,46.20
2018-01-13T04:11:18.505Z,43.80
2018-01-13T04:12:18.504Z,44.40
2018-01-13T04:13:18.509Z,45.80
2018-01-13T04:14:20.517Z,44.60
2018-01-13T04:15:18.516Z,45.60
2018-01-13T04:16:18.521Z,47.10
2018-01-13T04:17:18.523Z,46.10
2018-01-13T04:18:19.527Z,46.70
2018-01-13T04:19:18.537Z,46.50
2018-01-13T04:20:19.533Z,45.40
2018-01-13T04:21:18.539Z,47.90
2018-01-13T04:22:18.555Z,49.20
2018-01-13T04:23:18.541Z,49.00
2018-01-13T04:24:19.548Z,45.80
2018-01-13T04:25:18.544Z,47.60
2018-01-13T04:26:18.552Z,46.40
2018-01-13T04:27:18.552Z,46.80
2018-01-13T04:28:18.558Z,47.40
2018-01-13T04:29:18.564Z,46.20
2018-01-13T04:30:18.564Z,45.50
2018-01-13T04:31:18.581Z,44.70
2018-01-13T04:32:19.571Z,44.60
2018-01-13T04:33:18.573Z,45.30
2018-01-13T04:34:20.588Z,43.80
2018-01-13T04:35:18.587Z,45.70
2018-01-13T04:36:19.594Z,45.00
2018-01-13T04:37:18.579Z,43.00
2018-01-13T04:38:23.419Z,43.50
2018-01-13T04:39:18.593Z,45.30
2018-01-13T04:40:23.410Z,44.50
2018-01-13T04:41:18.602Z,44.50
2018-01-13T04:42:18.611Z,44.10
2018-01-13T04:43:18.607Z,44.20
2018-01-13T04:44:19.635Z,43.30
2018-01-13T04:45:18.616Z,42.90
2018-01-13T04:46:25.416Z,43.60
2018-01-13T04:47:18.620Z,42.00
2018-01-13T04:48:18.625Z,43.60
2018-01-13T04:49:18.627Z,43.10
2018-01-13T04:50:18.633Z,42.80
2018-01-13T04:51:18.631Z,42.10
2018-01-13T04:52:19.652Z,42.20
2018-01-13T04:53:18.638Z,42.40
2018-01-13T04:54:18.652Z,39.90
2018-01-13T04:55:18.653Z,40.80
2018-01-13T04:56:19.651Z,41.30
2018-01-13T04:57:18.651Z,41.30
2018-01-13T04:58:23.429Z,41.50
2018-01-13T04:59:18.666Z,41.50
2018-01-13T05:00:18.672Z,41.50
2018-01-13T05:01:18.660Z,40.50
2018-01-13T05:02:20.682Z,40.70
2018-01-13T05:03:18.673Z,40.60
2018-01-13T05:04:19.698Z,40.90
2018-01-13T05:05:18.676Z,41.60
2018-01-13T05:06:19.687Z,40.40
2018-01-13T05:07:18.685Z,41.30
2018-01-13T05:08:31.422Z,41.40
2018-01-13T05:09:18.691Z,41.30
2018-01-13T05:10:19.697Z,41.80
2018-01-13T05:11:18.698Z,40.80
2018-01-13T05:12:18.705Z,42.70
2018-01-13T05:13:18.705Z,41.10
2018-01-13T05:14:23.422Z,40.40
2018-01-13T05:15:18.710Z,41.00
2018-01-13T05:16:18.724Z,42.00
2018-01-13T05:17:18.714Z,42.00
2018-01-13T05:18:18.723Z,41.70
2018-01-13T05:19:18.721Z,42.10
2018-01-13T05:20:18.735Z,41.30
2018-01-13T05:21:18.735Z,41.30
2018-01-13T05:22:19.738Z,41.40
2018-01-13T05:23:18.736Z,42.10
2018-01-13T05:24:20.745Z,41.40
2018-01-13T05:25:18.745Z,41.90
2018-01-13T05:26:18.754Z,41.20
2018-01-13T05:27:18.750Z,41.50
2018-01-13T05:28:23.412Z,40.50
2018-01-13T05:29:18.755Z,43.10
2018-01-13T05:30:20.765Z,41.40
2018-01-13T05:31:18.765Z,40.40
2018-01-13T05:32:18.770Z,41.40
2018-01-13T05:33:18.769Z,39.80
2018-01-13T05:34:18.776Z,40.80
2018-01-13T05:35:18.768Z,40.00
2018-01-13T05:36:24.421Z,40.70
2018-01-13T05:37:18.781Z,39.90
2018-01-13T05:38:30.416Z,40.90
2018-01-13T05:39:18.788Z,39.20
2018-01-13T05:40:19.798Z,40.00
2018-01-13T05:41:18.791Z,41.20
2018-01-13T05:42:18.797Z,39.70
2018-01-13T05:43:18.800Z,40.20
2018-01-13T05:44:20.809Z,41.10
2018-01-13T05:45:18.807Z,41.60
2018-01-13T05:46:20.811Z,41.10
2018-01-13T05:47:18.818Z,39.90
2018-01-13T05:48:18.828Z,40.90
2018-01-13T05:49:18.817Z,40.30
2018-01-13T05:50:23.423Z,40.90
2018-01-13T05:51:18.825Z,40.50
2018-01-13T05:52:18.831Z,40.20
2018-01-13T05:53:18.835Z,41.40
2018-01-13T05:54:18.843Z,41.00
2018-01-13T05:55:18.839Z,41.10
2018-01-13T05:56:18.847Z,41.30
2018-01-13T05:57:18.849Z,40.30
2018-01-13T05:58:18.849Z,40.80
2018-01-13T05:59:18.856Z,40.10
2018-01-13T06:00:18.856Z,39.80
2018-01-13T06:01:18.858Z,40.00
2018-01-13T06:02:19.874Z,40.60
2018-01-13T06:03:18.865Z,38.90
2018-01-13T06:04:19.871Z,39.50
2018-01-13T06:05:18.869Z,40.10
2018-01-13T06:06:18.880Z,40.70
2018-01-13T06:07:18.878Z,39.20
2018-01-13T06:08:31.427Z,40.20
2018-01-13T06:09:18.895Z,39.30
2018-01-13T06:10:24.422Z,38.90
2018-01-13T06:11:18.893Z,39.90
2018-01-13T06:12:29.424Z,40.10
2018-01-13T06:13:18.895Z,39.10
2018-01-13T06:14:18.904Z,38.40
2018-01-13T06:15:18.901Z,38.90
2018-01-13T06:16:19.911Z,38.90
2018-01-13T06:17:18.913Z,37.70
2018-01-13T06:18:19.916Z,38.40
2018-01-13T06:19:18.914Z,37.60
2018-01-13T06:20:18.921Z,38.00
2018-01-13T06:21:18.921Z,38.60
2018-01-13T06:22:18.929Z,37.20
2018-01-13T06:23:18.932Z,37.80
2018-01-13T06:24:18.934Z,37.70
2018-01-13T06:25:18.936Z,37.40
2018-01-13T06:26:18.943Z,36.70
2018-01-13T06:27:18.944Z,37.50
2018-01-13T06:28:20.952Z,36.90
2018-01-13T06:29:18.954Z,36.90
2018-01-13T06:30:20.956Z,36.80
2018-01-13T06:31:18.956Z,36.70
2018-01-13T06:32:19.975Z,38.50
2018-01-13T06:33:18.965Z,36.60
2018-01-13T06:34:18.970Z,35.70
2018-01-13T06:35:18.970Z,37.20
2018-01-13T06:36:18.977Z,35.90
2018-01-13T06:37:18.976Z,36.30
2018-01-13T06:38:19.986Z,34.60
2018-01-13T06:39:18.980Z,35.50
2018-01-13T06:40:20.989Z,36.20
2018-01-13T06:41:18.993Z,37.00
2018-01-13T06:42:18.997Z,34.60
2018-01-13T06:43:19.000Z,35.60
2018-01-13T06:44:18.997Z,35.70
2018-01-13T06:45:18.998Z,35.50
2018-01-13T06:46:20.015Z,33.70
2018-01-13T06:47:19.005Z,34.80
2018-01-13T06:48:20.014Z,34.10
2018-01-13T06:49:19.011Z,34.50
2018-01-13T06:50:19.019Z,34.10
2018-01-13T06:51:19.022Z,32.90
2018-01-13T06:52:19.030Z,34.90
2018-01-13T06:53:19.030Z,33.40
2018-01-13T06:54:21.037Z,34.90
2018-01-13T06:55:19.034Z,33.50
2018-01-13T06:56:19.039Z,34.20
2018-01-13T06:57:19.039Z,34.50
2018-01-13T06:58:20.044Z,34.90
2018-01-13T06:59:19.051Z,33.50
2018-01-13T07:00:21.056Z,34.50
2018-01-13T07:01:19.102Z,34.50
2018-01-13T07:02:20.062Z,33.80
2018-01-13T07:03:19.065Z,34.00
2018-01-13T07:04:23.925Z,32.70
2018-01-13T07:05:19.061Z,33.50
2018-01-13T07:06:20.077Z,33.20
2018-01-13T07:07:19.071Z,33.50
2018-01-13T07:08:20.088Z,33.00
2018-01-13T07:09:19.078Z,33.60
2018-01-13T07:10:19.085Z,32.40
2018-01-13T07:11:19.082Z,33.80
2018-01-13T07:12:21.110Z,32.90
2018-01-13T07:13:19.089Z,33.20
2018-01-13T07:14:21.097Z,33.80
2018-01-13T07:15:19.091Z,33.40
2018-01-13T07:16:20.104Z,33.30
2018-01-13T07:17:19.104Z,33.60
2018-01-13T07:18:20.110Z,34.30
2018-01-13T07:19:19.106Z,34.10
2018-01-13T07:20:19.115Z,33.30
2018-01-13T07:21:19.118Z,33.40
2018-01-13T07:22:23.931Z,34.60
2018-01-13T07:23:19.127Z,34.20
2018-01-13T07:24:19.125Z,33.60
2018-01-13T07:25:19.126Z,34.00
2018-01-13T07:26:19.135Z,34.40
2018-01-13T07:27:19.139Z,35.40
2018-01-13T07:28:20.140Z,33.00
2018-01-13T07:29:19.140Z,33.50
2018-01-13T07:30:20.150Z,33.20
2018-01-13T07:31:19.156Z,33.50
2018-01-13T07:32:20.156Z,33.90
2018-01-13T07:33:19.159Z,34.40
2018-01-13T07:34:19.161Z,33.70
2018-01-13T07:35:19.170Z,33.90
2018-01-13T07:36:19.161Z,33.70
2018-01-13T07:37:19.165Z,34.10
2018-01-13T07:38:20.175Z,34.10
2018-01-13T07:39:19.176Z,33.50
2018-01-13T07:40:21.184Z,32.70
2018-01-13T07:41:19.182Z,32.80
2018-01-13T07:42:20.186Z,33.60
2018-01-13T07:43:19.188Z,33.40
2018-01-13T07:44:21.196Z,33.40
2018-01-13T07:45:19.194Z,33.40
2018-01-13T07:46:19.195Z,33.10
2018-01-13T07:47:19.194Z,32.00
2018-01-13T07:48:19.203Z,33.60
2018-01-13T07:49:19.218Z,33.50
2018-01-13T07:50:19.212Z,32.10
2018-01-13T07:51:19.213Z,32.90
2018-01-13T07:52:19.216Z,33.40
2018-01-13T07:53:19.213Z,33.00
2018-01-13T07:54:19.228Z,31.50
2018-01-13T07:55:19.227Z,34.00
2018-01-13T07:56:19.238Z,33.50
2018-01-13T07:57:19.233Z,33.80
2018-01-13T07:58:19.238Z,32.90
2018-01-13T07:59:19.236Z,34.10
2018-01-13T08:00:19.242Z,34.10
2018-01-13T08:01:19.243Z,34.70
2018-01-13T08:02:20.249Z,34.00
2018-01-13T08:03:19.252Z,34.30
2018-01-13T08:04:19.268Z,33.40
2018-01-13T08:05:19.264Z,33.90
2018-01-13T08:06:20.274Z,34.80
2018-01-13T08:07:19.258Z,32.80
2018-01-13T08:08:21.268Z,33.60
2018-01-13T08:09:19.278Z,34.70
2018-01-13T08:10:20.272Z,34.00
2018-01-13T08:11:19.275Z,34.20
2018-01-13T08:12:19.284Z,33.90
2018-01-13T08:13:19.276Z,34.30
2018-01-13T08:14:19.289Z,33.60
2018-01-13T08:15:19.283Z,33.40
2018-01-13T08:16:20.296Z,33.30
2018-01-13T08:17:19.300Z,34.50
2018-01-13T08:18:19.299Z,32.90
2018-01-13T08:19:19.301Z,33.90
2018-01-13T08:20:21.313Z,34.10
2018-01-13T08:21:19.305Z,33.30
2018-01-13T08:22:20.325Z,34.30
2018-01-13T08:23:19.314Z,33.50
2018-01-13T08:24:20.319Z,30.90
2018-01-13T08:25:19.331Z,33.60
2018-01-13T08:26:19.333Z,32.70
2018-01-13T08:27:19.329Z,33.80
2018-01-13T08:28:19.337Z,32.90
2018-01-13T08:29:19.330Z,32.50
2018-01-13T08:30:21.351Z,33.20
2018-01-13T08:31:19.337Z,33.60
2018-01-13T08:32:20.343Z,33.50
2018-01-13T08:33:19.343Z,33.50
2018-01-13T08:34:20.352Z,31.90
2018-01-13T08:35:19.362Z,33.50
2018-01-13T08:36:19.355Z,34.00
2018-01-13T08:37:19.357Z,33.40
2018-01-13T08:38:20.370Z,32.70
2018-01-13T08:39:19.366Z,32.40
2018-01-13T08:40:21.370Z,32.40
2018-01-13T08:41:19.378Z,32.90
2018-01-13T08:42:20.378Z,32.40
2018-01-13T08:43:19.375Z,32.10
2018-01-13T08:44:19.387Z,32.10
2018-01-13T08:45:19.379Z,31.40
2018-01-13T08:46:20.387Z,31.30
2018-01-13T08:47:19.385Z,31.30
2018-01-13T08:48:19.424Z,30.50
2018-01-13T08:49:19.393Z,30.90
2018-01-13T08:50:20.407Z,31.30
2018-01-13T08:51:19.402Z,29.90
2018-01-13T08:52:19.422Z,31.90
2018-01-13T08:53:19.408Z,31.10
2018-01-13T08:54:23.940Z,29.30
2018-01-13T08:55:19.412Z,31.10
2018-01-13T08:56:19.420Z,30.60
2018-01-13T08:57:19.417Z,30.60
2018-01-13T08:58:19.425Z,29.90
2018-01-13T08:59:19.429Z,30.50
2018-01-13T09:00:21.431Z,29.50
2018-01-13T09:01:19.434Z,29.40
2018-01-13T09:02:19.442Z,28.60
2018-01-13T09:03:19.474Z,29.50
2018-01-13T09:04:19.463Z,29.80
2018-01-13T09:05:19.446Z,28.30
2018-01-13T09:06:20.501Z,29.10
2018-01-13T09:07:19.533Z,28.80
2018-01-13T09:08:20.516Z,28.80
2018-01-13T09:09:19.454Z,29.20
2018-01-13T09:10:19.504Z,29.00
2018-01-13T09:11:19.462Z,29.10
2018-01-13T09:12:19.515Z,28.40
2018-01-13T09:13:19.471Z,29.00
2018-01-13T09:14:19.530Z,27.60
2018-01-13T09:15:19.480Z,28.50
2018-01-13T09:16:21.587Z,28.20
2018-01-13T09:17:19.483Z,28.70
2018-01-13T09:18:24.466Z,28.30
2018-01-13T09:19:19.494Z,27.40
2018-01-13T09:20:19.566Z,26.90
2018-01-13T09:21:19.492Z,27.00
2018-01-13T09:22:19.580Z,27.60
2018-01-13T09:23:19.558Z,26.50
2018-01-13T09:24:19.506Z,26.70
2018-01-13T09:25:19.598Z,27.00
2018-01-13T09:26:19.518Z,26.60
2018-01-13T09:27:19.611Z,27.40
2018-01-13T09:28:19.518Z,26.30
2018-01-13T09:29:19.628Z,27.40
2018-01-13T09:30:19.529Z,25.90
2018-01-13T09:31:19.638Z,26.30
2018-01-13T09:32:19.530Z,25.90
2018-01-13T09:33:19.550Z,26.00
2018-01-13T09:34:19.537Z,26.00
2018-01-13T09:35:19.569Z,25.30
2018-01-13T09:36:19.543Z,25.40
2018-01-13T09:37:19.579Z,25.30
2018-01-13T09:38:19.551Z,25.40
2018-01-13T09:39:19.593Z,25.10
2018-01-13T09:40:19.554Z,26.00
2018-01-13T09:41:19.606Z,25.60
2018-01-13T09:42:19.566Z,25.00
2018-01-13T09:43:19.620Z,25.60
2018-01-13T09:44:19.568Z,24.30
2018-01-13T09:45:19.635Z,25.00
2018-01-13T09:46:19.576Z,24.10
2018-01-13T09:47:19.646Z,24.10
2018-01-13T09:48:19.583Z,24.60
2018-01-13T09:49:19.660Z,23.50
2018-01-13T09:50:19.588Z,24.20
2018-01-13T09:51:19.684Z,24.40
2018-01-13T09:52:19.622Z,23.70
2018-01-13T09:53:19.710Z,23.80
2018-01-13T09:54:19.602Z,23.80
2018-01-13T09:55:19.607Z,24.10
2018-01-13T09:56:20.638Z,23.60
2018-01-13T09:57:19.611Z,24.10
2018-01-13T09:58:24.538Z,23.10
2018-01-13T09:59:19.622Z,24.00
2018-01-13T10:00:19.647Z,22.80
2018-01-13T10:01:19.620Z,22.60
2018-01-13T10:02:19.649Z,23.70
2018-01-13T10:03:19.633Z,23.70
2018-01-13T10:04:19.662Z,23.20
2018-01-13T10:05:19.637Z,23.40
2018-01-13T10:06:19.686Z,23.40
2018-01-13T10:07:19.645Z,23.50
2018-01-13T10:08:21.737Z,23.20
2018-01-13T10:09:19.647Z,22.80
2018-01-13T10:10:19.708Z,25.40
2018-01-13T10:11:19.659Z,23.90
2018-01-13T10:12:19.726Z,22.60
2018-01-13T10:13:19.656Z,23.10
2018-01-13T10:14:19.749Z,23.30
2018-01-13T10:15:19.676Z,23.50
2018-01-13T10:16:19.750Z,22.60
2018-01-13T10:17:19.679Z,23.00
2018-01-13T10:18:19.762Z,23.50
2018-01-13T10:19:19.678Z,23.40
2018-01-13T10:20:19.770Z,22.20
2018-01-13T10:21:19.686Z,21.70
2018-01-13T10:22:19.783Z,22.70
2018-01-13T10:23:19.697Z,22.10
2018-01-13T10:24:19.806Z,22.40
2018-01-13T10:25:19.699Z,22.40
2018-01-13T10:26:19.818Z,22.60
2018-01-13T10:27:19.709Z,22.30
2018-01-13T10:28:19.744Z,22.90
2018-01-13T10:29:19.720Z,22.50
2018-01-13T10:30:19.717Z,21.80
2018-01-13T10:31:19.721Z,21.70
2018-01-13T10:32:19.727Z,22.30
2018-01-13T10:33:19.755Z,22.10
2018-01-13T10:34:19.732Z,21.60
2018-01-13T10:35:19.768Z,21.30
2018-01-13T10:36:19.741Z,21.80
2018-01-13T10:37:19.785Z,22.80
2018-01-13T10:38:19.742Z,21.10
2018-01-13T10:39:19.799Z,21.20
2018-01-13T10:40:19.755Z,21.10
2018-01-13T10:41:19.811Z,21.70
2018-01-13T10:42:19.756Z,20.90
2018-01-13T10:43:19.824Z,20.70
2018-01-13T10:44:19.762Z,21.00
2018-01-13T10:45:19.847Z,22.30
2018-01-13T10:46:19.766Z,21.50
2018-01-13T10:47:19.769Z,22.60
2018-01-13T10:48:19.771Z,21.80
2018-01-13T10:49:19.777Z,21.80
2018-01-13T10:50:19.791Z,21.20
2018-01-13T10:51:19.787Z,21.80
2018-01-13T10:52:19.892Z,20.90
2018-01-13T10:53:19.789Z,22.20
2018-01-13T10:54:19.909Z,21.20
2018-01-13T10:55:19.798Z,20.50
2018-01-13T10:56:19.795Z,21.00
2018-01-13T10:57:19.820Z,20.20
2018-01-13T10:58:19.805Z,21.10
2018-01-13T10:59:19.838Z,21.10
2018-01-13T11:00:19.810Z,20.70
2018-01-13T11:01:21.898Z,20.40
2018-01-13T11:02:19.821Z,20.30
2018-01-13T11:03:19.823Z,20.50
2018-01-13T11:04:19.852Z,20.40
2018-01-13T11:05:19.831Z,20.30
2018-01-13T11:06:19.842Z,19.70
2018-01-13T11:07:19.840Z,20.80
2018-01-13T11:08:19.849Z,20.00
2018-01-13T11:09:19.854Z,20.40
2018-01-13T11:10:19.845Z,20.50
2018-01-13T11:11:19.852Z,19.90
2018-01-13T11:12:19.853Z,19.20
2018-01-13T11:13:19.854Z,20.70
2018-01-13T11:14:19.858Z,19.40
2018-01-13T11:15:19.863Z,20.20
2018-01-13T11:16:19.870Z,19.70
2018-01-13T11:17:19.865Z,19.40
2018-01-13T11:18:19.871Z,19.60
2018-01-13T11:19:19.875Z,19.30
2018-01-13T11:20:19.970Z,19.50
2018-01-13T11:21:19.879Z,18.90
2018-01-13T11:22:19.883Z,19.80
2018-01-13T11:23:19.892Z,19.40
2018-01-13T11:24:19.887Z,19.00
2018-01-13T11:25:19.903Z,19.10
2018-01-13T11:26:19.898Z,18.40
2018-01-13T11:27:19.898Z,18.30
2018-01-13T11:28:19.926Z,19.40
2018-01-13T11:29:19.906Z,19.00
2018-01-13T11:30:19.938Z,19.60
2018-01-13T11:31:19.915Z,19.60
2018-01-13T11:32:19.949Z,19.20
2018-01-13T11:33:19.921Z,18.60
2018-01-13T11:34:19.966Z,18.50
2018-01-13T11:35:19.934Z,18.80
2018-01-13T11:36:19.930Z,18.30
2018-01-13T11:37:19.986Z,19.20
2018-01-13T11:38:19.936Z,19.50
2018-01-13T11:39:20.003Z,19.20
2018-01-13T11:40:19.943Z,18.80
2018-01-13T11:41:24.521Z,19.20
2018-01-13T11:42:19.949Z,19.90
2018-01-13T11:43:19.959Z,18.80
2018-01-13T11:44:19.951Z,19.00
2018-01-13T11:45:19.956Z,19.60
2018-01-13T11:46:20.047Z,19.30
2018-01-13T11:47:19.962Z,19.60
2018-01-13T11:48:20.063Z,18.90
2018-01-13T11:49:19.978Z,19.10
2018-01-13T11:50:19.976Z,18.60
2018-01-13T11:51:21.005Z,20.00
2018-01-13T11:52:19.986Z,18.80
2018-01-13T11:53:21.022Z,18.40
2018-01-13T11:54:19.991Z,19.00
2018-01-13T11:55:20.008Z,18.40
2018-01-13T11:56:19.992Z,18.40
2018-01-13T11:57:20.003Z,18.90
2018-01-13T11:58:20.001Z,19.20
2018-01-13T11:59:20.007Z,18.40
2018-01-13T12:00:20.041Z,18.80
2018-01-13T12:01:20.013Z,18.80
2018-01-13T12:02:20.013Z,17.80
2018-01-13T12:03:20.061Z,18.80
2018-01-13T12:04:20.019Z,18.70
2018-01-13T12:05:20.071Z,18.50
2018-01-13T12:06:20.032Z,18.30
2018-01-13T12:07:21.112Z,17.70
2018-01-13T12:08:20.038Z,18.50
2018-01-13T12:09:20.102Z,18.30
2018-01-13T12:10:20.042Z,17.70
2018-01-13T12:11:20.115Z,17.80
2018-01-13T12:12:20.052Z,17.30
2018-01-13T12:13:20.172Z,18.20
2018-01-13T12:14:20.049Z,16.50
2018-01-13T12:15:20.143Z,16.40
2018-01-13T12:16:20.058Z,17.70
2018-01-13T12:17:20.063Z,17.60
2018-01-13T12:18:20.067Z,17.10
2018-01-13T12:19:20.074Z,17.10
2018-01-13T12:20:20.071Z,16.90
2018-01-13T12:21:20.081Z,17.50
2018-01-13T12:22:20.086Z,17.40
2018-01-13T12:23:20.087Z,16.70
2018-01-13T12:24:20.083Z,18.20
2018-01-13T12:25:20.087Z,16.80
2018-01-13T12:26:20.088Z,17.60
2018-01-13T12:27:20.094Z,18.00
2018-01-13T12:28:20.097Z,16.50
2018-01-13T12:29:20.101Z,17.50
2018-01-13T12:30:20.142Z,17.80
2018-01-13T12:31:20.114Z,17.40
2018-01-13T12:32:21.367Z,16.80
2018-01-13T12:33:20.164Z,16.20
2018-01-13T12:34:20.119Z,16.40
2018-01-13T12:35:20.122Z,16.80
2018-01-13T12:36:20.124Z,17.60
2018-01-13T12:37:20.126Z,17.00
2018-01-13T12:38:20.131Z,18.00
2018-01-13T12:39:20.206Z,17.90
2018-01-13T12:40:20.134Z,17.80
2018-01-13T12:41:20.223Z,16.80
2018-01-13T12:42:20.146Z,17.20
2018-01-13T12:43:21.261Z,17.10
2018-01-13T12:44:20.147Z,17.70
2018-01-13T12:45:20.153Z,16.60
2018-01-13T12:46:20.160Z,17.80
2018-01-13T12:47:20.269Z,18.00
2018-01-13T12:48:20.162Z,17.50
2018-01-13T12:49:20.273Z,17.80
2018-01-13T12:50:20.174Z,18.10
2018-01-13T12:51:20.169Z,16.60
2018-01-13T12:52:20.174Z,17.00